Terminal Aerodrome Forecast
Issued by NWS Spokane, WA

Home | Current Version | Previous Version | Text Only | Print | Product List | Glossary On
Versions: 1 2 3 4 5 6 7 8 9 10 11 12 13 14 15 16 17 18 19
000
FTUS46 KOTX 190520
TAFGEG
TAF
KGEG 190520Z 1906/2006 16005KT P6SM SCT250
     FM191400 16006KT P6SM SCT100 BKN200
     FM192300 22018G29KT P6SM SCT080 BKN100 OVC200
     FM200200 22027G35KT P6SM VCSH BKN080 BKN100 BKN200=

USA.gov is the U.S. government's official web portal to all federal, state and local government web resources and services.